Time;durP1;ratioP1;P1;durP2;ratioP2;P2;SDS_P1;SDS_P2;PMS_P1;PMS_P2;Temp;Humidity;BMP_temperature;BMP_pressure;BME280_temperature;BME280_humidity;BME280_pressure;Samples;Min_cycle;Max_cycle;Signal;HPM_P1;HPM_P2
2022/08/29 00:01:19;;;;;;;16.90;9.40;;;17.00;99.90;;;;;;2603259;54;20046;31
2022/08/29 00:03:55;;;;;;;15.48;8.68;;;17.00;99.90;;;;;;2603257;54;20026;31
2022/08/29 00:06:29;;;;;;;16.95;9.05;;;16.90;99.90;;;;;;2622322;46;20851;31
2022/08/29 00:09:03;;;;;;;13.82;8.75;;;16.90;99.90;;;;;;2603295;54;20026;31
2022/08/29 00:11:37;;;;;;;20.52;9.52;;;16.80;99.90;;;;;;2603334;54;20846;31
2022/08/29 00:14:19;;;;;;;14.35;8.35;;;16.80;99.90;;;;;;2603168;54;21477;31
2022/08/29 00:16:59;;;;;;;19.20;8.90;;;16.80;99.90;;;;;;2621766;46;20029;31
2022/08/29 00:19:34;;;;;;;19.05;9.15;;;16.70;99.90;;;;;;2603451;54;20034;31
2022/08/29 00:22:08;;;;;;;18.85;8.55;;;16.70;99.90;;;;;;2603264;54;20045;31
2022/08/29 00:24:42;;;;;;;13.35;8.23;;;16.60;99.90;;;;;;2603369;54;20097;31
2022/08/29 00:27:16;;;;;;;16.85;7.95;;;16.60;99.90;;;;;;2603277;54;20042;31
2022/08/29 00:29:50;;;;;;;16.35;9.13;;;16.60;99.90;;;;;;2621780;46;20116;31
2022/08/29 00:32:33;;;;;;;18.33;9.25;;;16.60;99.90;;;;;;2603232;54;21360;31
2022/08/29 00:35:09;;;;;;;25.25;9.07;;;16.60;99.90;;;;;;2621849;46;20769;31
2022/08/29 00:37:44;;;;;;;16.60;9.03;;;16.50;99.90;;;;;;2603170;54;20085;31
2022/08/29 00:40:19;;;;;;;17.60;8.38;;;16.50;99.90;;;;;;2621621;46;20121;31
2022/08/29 00:42:53;;;;;;;16.77;8.27;;;16.50;99.90;;;;;;2603368;54;20027;31
2022/08/29 00:45:28;;;;;;;20.92;9.05;;;16.40;99.90;;;;;;2621587;46;20157;31
2022/08/29 00:48:07;;;;;;;18.35;8.90;;;16.50;99.90;;;;;;2603366;54;20030;31
2022/08/29 00:50:42;;;;;;;17.00;9.10;;;16.40;99.90;;;;;;2603125;54;20758;31
2022/08/29 00:53:18;;;;;;;16.65;8.68;;;16.40;99.90;;;;;;2603059;54;20977;31
2022/08/29 00:55:52;;;;;;;14.25;8.88;;;16.30;99.90;;;;;;2603151;54;20046;31
2022/08/29 00:58:28;;;;;;;15.05;9.27;;;16.30;99.90;;;;;;2603045;54;20777;31
2022/08/29 01:01:02;;;;;;;16.90;7.72;;;16.30;99.90;;;;;;2602940;54;21279;31
2022/08/29 01:03:40;;;;;;;11.90;6.60;;;16.30;99.90;;;;;;2603323;54;20031;31
2022/08/29 01:06:15;;;;;;;18.92;8.60;;;16.30;99.90;;;;;;2602972;54;20057;31
2022/08/29 01:08:49;;;;;;;17.60;8.90;;;16.30;99.90;;;;;;2603004;54;19941;31
2022/08/29 01:14:17;;;;;;;15.52;7.85;;;16.20;99.90;;;;;;2621556;47;20038;31
2022/08/29 01:16:51;;;;;;;15.25;8.60;;;16.20;99.90;;;;;;2603185;54;20942;31
2022/08/29 01:19:39;;;;;;;17.65;8.02;;;16.20;99.90;;;;;;2603022;54;20812;31
2022/08/29 01:22:24;;;;;;;16.33;8.27;;;16.20;99.90;;;;;;2621395;47;20022;31
2022/08/29 01:25:02;;;;;;;19.08;7.05;;;16.20;99.90;;;;;;2603007;54;19939;31
2022/08/29 01:27:38;;;;;;;14.87;8.67;;;16.20;99.90;;;;;;2603112;54;20081;31
2022/08/29 01:30:14;;;;;;;16.88;8.88;;;16.10;99.90;;;;;;2603206;54;20030;31
2022/08/29 01:32:48;;;;;;;14.50;8.60;;;16.10;99.90;;;;;;2603013;54;20022;31
2022/08/29 01:35:22;;;;;;;16.92;9.15;;;16.10;99.90;;;;;;2602888;54;20027;31
2022/08/29 01:37:57;;;;;;;15.63;9.07;;;16.10;99.90;;;;;;2602930;54;20101;31
2022/08/29 01:40:37;;;;;;;15.10;9.50;;;16.10;99.90;;;;;;2602965;54;20023;31
2022/08/29 01:43:11;;;;;;;15.38;8.18;;;16.10;99.90;;;;;;2602967;54;20764;31
2022/08/29 01:45:45;;;;;;;15.45;7.85;;;16.20;99.90;;;;;;2602881;54;20978;31
2022/08/29 01:48:20;;;;;;;17.30;8.65;;;16.00;99.90;;;;;;2603070;54;20053;31
2022/08/29 01:50:54;;;;;;;16.67;9.60;;;16.10;99.90;;;;;;2621134;47;20629;31
2022/08/29 01:53:29;;;;;;;20.08;9.65;;;16.10;99.90;;;;;;2720174;39;20461;31
2022/08/29 01:56:14;;;;;;;17.50;8.73;;;16.10;99.90;;;;;;2602858;54;20030;31
2022/08/29 01:58:49;;;;;;;17.53;9.57;;;16.00;99.90;;;;;;2621214;47;20847;31
2022/08/29 02:01:25;;;;;;;14.82;9.52;;;16.00;99.90;;;;;;2603036;54;19957;31
2022/08/29 02:04:00;;;;;;;16.38;9.13;;;16.00;99.90;;;;;;2701451;39;21494;31
2022/08/29 02:06:34;;;;;;;15.40;9.13;;;16.00;99.90;;;;;;2603005;54;20053;31
2022/08/29 02:09:08;;;;;;;19.80;9.80;;;16.00;99.90;;;;;;2621127;47;20787;31
2022/08/29 02:11:47;;;;;;;13.50;8.80;;;16.00;99.90;;;;;;2603153;54;20261;31
2022/08/29 02:14:22;;;;;;;18.50;9.23;;;15.90;99.90;;;;;;2621946;47;20042;31
2022/08/29 02:16:56;;;;;;;13.30;7.85;;;15.90;99.90;;;;;;2603742;54;20096;31
2022/08/29 02:19:30;;;;;;;23.52;11.02;;;15.90;99.90;;;;;;2603832;54;20050;31
2022/08/29 02:22:04;;;;;;;16.00;8.75;;;15.90;99.90;;;;;;2603788;54;20049;31
2022/08/29 02:24:38;;;;;;;14.63;8.35;;;15.80;99.90;;;;;;2603632;54;20089;31
2022/08/29 02:27:15;;;;;;;11.80;8.23;;;15.80;99.90;;;;;;2603446;54;20031;31
2022/08/29 02:29:49;;;;;;;21.15;9.55;;;15.80;99.90;;;;;;2603800;54;20882;31
2022/08/29 02:32:23;;;;;;;18.35;8.20;;;15.70;99.90;;;;;;2603594;54;20759;31
2022/08/29 02:34:58;;;;;;;17.35;9.07;;;15.80;99.90;;;;;;2603607;54;20046;31
2022/08/29 02:37:33;;;;;;;15.30;8.60;;;15.70;99.90;;;;;;2621801;46;20120;31
2022/08/29 02:40:05;;;;;;;15.32;8.60;;;15.70;99.90;;;;;;2702200;39;21225;31
2022/08/29 02:42:42;;;;;;;16.35;9.55;;;15.70;99.90;;;;;;2603664;54;20034;31
2022/08/29 02:45:17;;;;;;;15.75;9.82;;;15.70;99.90;;;;;;2603469;54;20175;31
2022/08/29 02:47:51;;;;;;;20.33;10.05;;;15.70;99.90;;;;;;2603673;54;20027;31
2022/08/29 02:50:25;;;;;;;16.42;9.02;;;15.70;99.90;;;;;;2603735;54;19954;31
2022/08/29 02:52:59;;;;;;;16.50;9.07;;;15.70;99.90;;;;;;2622103;46;20172;31
2022/08/29 02:55:34;;;;;;;15.05;9.13;;;15.70;99.90;;;;;;2603424;54;20085;31
2022/08/29 02:58:12;;;;;;;19.63;9.25;;;15.70;99.90;;;;;;2603499;54;20046;31
2022/08/29 03:00:47;;;;;;;16.10;8.65;;;15.60;99.90;;;;;;2603540;54;20910;31
2022/08/29 03:03:21;;;;;;;15.00;9.50;;;15.60;99.90;;;;;;2603504;54;20031;31
2022/08/29 03:05:55;;;;;;;18.63;9.23;;;15.70;99.90;;;;;;2622043;46;20027;31
2022/08/29 03:08:29;;;;;;;13.85;9.60;;;15.60;99.90;;;;;;2603794;54;20176;31
2022/08/29 03:11:04;;;;;;;15.65;8.88;;;15.60;99.90;;;;;;2603464;54;20868;31
2022/08/29 03:13:41;;;;;;;17.90;9.30;;;15.60;99.90;;;;;;2622013;46;20056;31
2022/08/29 03:16:15;;;;;;;13.73;9.07;;;15.60;99.90;;;;;;2603380;54;20286;31
2022/08/29 03:18:49;;;;;;;17.53;9.63;;;15.50;99.90;;;;;;2603545;54;20022;31
2022/08/29 03:21:25;;;;;;;16.58;9.20;;;15.60;99.90;;;;;;2603606;54;20768;31
2022/08/29 03:24:00;;;;;;;15.17;9.30;;;15.50;99.90;;;;;;2701921;39;20543;31
2022/08/29 03:26:34;;;;;;;14.13;7.50;;;15.60;99.90;;;;;;2603336;54;20090;31
2022/08/29 03:29:11;;;;;;;20.08;10.00;;;15.60;99.90;;;;;;2603179;54;20255;31
2022/08/29 03:31:45;;;;;;;14.85;8.88;;;15.50;99.90;;;;;;2603406;54;20057;31
2022/08/29 03:34:21;;;;;;;18.00;9.20;;;15.50;99.90;;;;;;2603641;54;20893;31
2022/08/29 03:36:55;;;;;;;16.40;9.97;;;15.50;99.90;;;;;;2603411;54;20089;31
2022/08/29 03:39:30;;;;;;;15.18;9.80;;;15.50;99.90;;;;;;2603599;54;20592;31
2022/08/29 03:42:04;;;;;;;24.33;10.85;;;15.40;99.90;;;;;;2603624;54;20041;31
2022/08/29 03:44:41;;;;;;;15.40;9.32;;;15.40;99.90;;;;;;2602953;54;20033;31
2022/08/29 03:47:15;;;;;;;18.75;10.05;;;15.50;99.90;;;;;;2603675;54;20881;31
2022/08/29 03:49:50;;;;;;;20.35;10.27;;;15.40;99.90;;;;;;2603253;54;20077;31
2022/08/29 03:52:24;;;;;;;17.90;10.30;;;15.40;99.90;;;;;;2603356;54;20807;31
2022/08/29 03:54:59;;;;;;;14.95;9.52;;;15.40;99.90;;;;;;2603501;54;20364;31
2022/08/29 03:57:33;;;;;;;16.27;10.05;;;15.30;99.90;;;;;;2791697;31;22460;31
2022/08/29 04:00:15;;;;;;;20.50;10.57;;;15.40;99.90;;;;;;2621570;46;20208;31
2022/08/29 04:02:52;;;;;;;20.02;10.77;;;15.30;99.90;;;;;;2621833;46;20038;31
2022/08/29 04:05:26;;;;;;;19.92;9.82;;;15.30;99.90;;;;;;2603271;54;20753;31
2022/08/29 04:08:00;;;;;;;22.60;10.50;;;15.30;99.90;;;;;;2603306;54;20030;31
2022/08/29 04:10:36;;;;;;;14.85;9.93;;;15.30;99.90;;;;;;2603304;54;20033;31
2022/08/29 04:13:12;;;;;;;;;;;15.30;99.90;;;;;;2603413;54;20029;31
2022/08/29 04:15:49;;;;;;;19.40;9.80;;;15.30;99.90;;;;;;2701791;39;21487;31
2022/08/29 04:18:24;;;;;;;17.83;9.48;;;15.20;99.90;;;;;;2621988;46;20120;31
2022/08/29 04:21:03;;;;;;;20.90;10.13;;;15.30;99.90;;;;;;2603220;54;20850;31
2022/08/29 04:23:40;;;;;;;21.13;11.07;;;15.20;99.90;;;;;;2603267;54;20057;31
2022/08/29 04:26:18;;;;;;;22.15;9.80;;;15.20;99.90;;;;;;2603274;54;20808;31
2022/08/29 04:29:12;;;;;;;17.65;10.93;;;15.30;99.90;;;;;;2603391;54;20033;31
2022/08/29 04:31:50;;;;;;;16.63;9.77;;;15.30;99.90;;;;;;2603231;54;19946;31
2022/08/29 04:34:25;;;;;;;12.00;9.15;;;15.30;99.90;;;;;;2603323;54;20948;31
2022/08/29 04:37:02;;;;;;;16.23;10.70;;;15.40;99.90;;;;;;2602764;54;20856;31
2022/08/29 04:39:36;;;;;;;19.52;10.38;;;15.40;99.90;;;;;;2603170;54;20081;31
2022/08/29 04:42:12;;;;;;;19.65;10.70;;;15.50;99.90;;;;;;2603127;54;20145;31
2022/08/29 04:44:54;;;;;;;15.40;8.85;;;15.50;99.90;;;;;;2603196;54;20777;31
2022/08/29 04:47:33;;;;;;;15.13;9.38;;;15.60;99.90;;;;;;2602494;54;20818;31
2022/08/29 04:50:08;;;;;;;11.45;8.05;;;15.70;99.90;;;;;;2603116;54;20093;31
2022/08/29 04:52:45;;;;;;;14.80;9.03;;;15.90;99.90;;;;;;2603163;54;20195;31
2022/08/29 04:55:22;;;;;;;12.55;7.75;;;16.00;99.90;;;;;;2603299;54;20026;31
2022/08/29 04:58:01;;;;;;;18.90;9.10;;;16.10;99.90;;;;;;2603028;54;20028;31
2022/08/29 05:00:37;;;;;;;13.15;8.07;;;16.10;99.90;;;;;;2602984;54;20870;31
2022/08/29 05:03:17;;;;;;;15.70;8.13;;;16.20;99.90;;;;;;2621629;46;19934;31
2022/08/29 05:05:58;;;;;;;14.80;8.27;;;16.30;99.90;;;;;;2603121;54;19941;31
2022/08/29 05:08:34;;;;;;;15.15;8.00;;;16.60;99.90;;;;;;2603177;54;20573;31
2022/08/29 05:11:12;;;;;;;19.92;8.40;;;16.60;99.90;;;;;;2621708;47;20046;31
2022/08/29 05:13:46;;;;;;;15.60;8.25;;;16.70;99.90;;;;;;2603288;54;20876;31
2022/08/29 05:16:22;;;;;;;15.07;8.90;;;16.80;99.90;;;;;;2621710;47;20868;31
2022/08/29 05:19:00;;;;;;;10.63;7.78;;;16.90;99.90;;;;;;2602972;54;20996;31
2022/08/29 05:21:36;;;;;;;13.05;8.38;;;17.00;99.90;;;;;;2603274;54;20026;31
2022/08/29 05:24:12;;;;;;;16.08;8.48;;;17.20;99.90;;;;;;2621474;47;20038;31
2022/08/29 05:26:47;;;;;;;15.88;7.53;;;17.20;99.90;;;;;;2602925;54;20083;31
2022/08/29 05:29:21;;;;;;;14.05;7.22;;;17.30;99.90;;;;;;2602919;54;20048;31
2022/08/29 05:31:56;;;;;;;13.30;6.80;;;17.40;99.90;;;;;;2602769;54;21028;31
2022/08/29 05:34:34;;;;;;;12.82;6.90;;;17.60;99.90;;;;;;2602944;54;20064;31
2022/08/29 05:37:11;;;;;;;11.85;6.38;;;17.60;99.90;;;;;;2603037;54;21367;31
2022/08/29 05:39:46;;;;;;;11.30;6.78;;;17.60;99.90;;;;;;2603110;54;20774;31
2022/08/29 05:42:22;;;;;;;10.45;6.60;;;17.70;99.90;;;;;;2603151;54;20069;31
2022/08/29 05:44:58;;;;;;;18.50;6.65;;;17.90;99.90;;;;;;2772744;31;21377;31
2022/08/29 05:47:33;;;;;;;13.82;6.05;;;18.00;99.90;;;;;;2603136;54;20057;31
2022/08/29 05:50:15;;;;;;;10.90;6.35;;;18.20;99.90;;;;;;2622333;46;20034;31
2022/08/29 05:52:50;;;;;;;11.98;5.57;;;18.40;99.90;;;;;;2603826;54;20026;31
2022/08/29 05:55:28;;;;;;;10.70;5.20;;;18.60;99.90;;;;;;2622189;46;20032;31
2022/08/29 05:58:02;;;;;;;12.10;5.30;;;18.80;99.90;;;;;;2604132;54;20808;31
2022/08/29 06:00:39;;;;;;;12.75;5.55;;;19.00;99.90;;;;;;2603849;54;20052;31
2022/08/29 06:03:15;;;;;;;8.85;5.45;;;19.20;99.90;;;;;;2603713;54;20040;31
2022/08/29 06:05:55;;;;;;;11.07;5.37;;;19.40;99.90;;;;;;2602886;54;20022;31
2022/08/29 06:08:30;;;;;;;11.43;5.70;;;19.60;99.90;;;;;;2603791;54;20054;31
2022/08/29 06:11:05;;;;;;;10.07;5.32;;;19.90;99.90;;;;;;2603710;54;20026;31
2022/08/29 06:13:41;;;;;;;10.70;4.63;;;20.10;99.90;;;;;;2603737;54;20032;31
2022/08/29 06:16:16;;;;;;;11.68;4.95;;;20.30;99.90;;;;;;2603754;54;20085;31
2022/08/29 06:18:52;;;;;;;8.47;4.00;;;20.50;99.90;;;;;;2603453;54;20667;31
2022/08/29 06:21:29;;;;;;;11.00;4.97;;;20.70;99.90;;;;;;2622140;46;20049;31
2022/08/29 06:24:09;;;;;;;14.02;4.30;;;20.80;99.90;;;;;;2603900;54;20038;31
2022/08/29 06:26:43;;;;;;;10.90;4.77;;;21.00;99.90;;;;;;2603766;54;20097;31
2022/08/29 06:29:19;;;;;;;10.27;4.13;;;21.10;99.90;;;;;;2603848;54;20890;31
2022/08/29 06:31:58;;;;;;;8.75;4.75;;;21.20;99.90;;;;;;2603524;54;20037;31
2022/08/29 06:34:33;;;;;;;9.33;4.60;;;21.30;99.90;;;;;;2603643;54;20030;31
2022/08/29 06:37:11;;;;;;;10.60;5.00;;;21.50;99.90;;;;;;2622261;46;20034;31
2022/08/29 06:39:46;;;;;;;10.05;4.55;;;21.50;99.90;;;;;;2622017;46;20140;31
2022/08/29 06:42:23;;;;;;;;;;;21.70;99.90;;;;;;2603741;54;20023;31
2022/08/29 06:45:02;;;;;;;8.23;3.85;;;21.80;99.90;;;;;;2603671;54;19935;31
2022/08/29 06:47:37;;;;;;;12.30;3.80;;;22.00;99.90;;;;;;2603504;54;20931;31
2022/08/29 06:50:13;;;;;;;8.10;4.15;;;22.20;99.90;;;;;;2603781;54;21882;31
2022/08/29 06:52:49;;;;;;;;;;;22.40;99.90;;;;;;2603824;54;20089;31
2022/08/29 06:55:31;;;;;;;10.95;4.35;;;22.50;99.90;;;;;;2603696;54;19946;31
2022/08/29 06:58:06;;;;;;;7.47;4.03;;;22.60;99.90;;;;;;2603606;54;20810;31
2022/08/29 07:00:42;;;;;;;10.18;3.80;;;22.60;99.90;;;;;;2603253;54;20091;31
2022/08/29 07:03:25;;;;;;;11.00;3.83;;;22.60;99.90;;;;;;2621703;46;20038;31
2022/08/29 07:06:00;;;;;;;;;;;22.70;99.90;;;;;;2622379;46;20027;31
2022/08/29 07:08:35;;;;;;;14.67;3.40;;;22.80;99.90;;;;;;2603325;54;19941;31
2022/08/29 07:11:34;;;;;;;6.00;3.10;;;22.90;99.90;;;;;;2603538;54;20273;31
2022/08/29 07:14:14;;;;;;;8.43;3.33;;;22.80;99.90;;;;;;2603181;54;20154;31
2022/08/29 07:16:49;;;;;;;10.10;4.33;;;22.60;99.90;;;;;;2701715;39;20604;31
2022/08/29 07:19:26;;;;;;;10.55;3.30;;;22.50;99.90;;;;;;2603576;54;20109;31
2022/08/29 07:22:01;;;;;;;10.27;3.65;;;22.60;99.90;;;;;;2603480;54;20062;31
2022/08/29 07:25:02;;;;;;;10.45;3.58;;;22.80;99.90;;;;;;2702161;39;21611;31
2022/08/29 07:27:41;;;;;;;7.90;3.80;;;22.90;99.90;;;;;;2603143;54;20031;31
2022/08/29 07:30:19;;;;;;;13.27;7.03;;;23.00;99.90;;;;;;2621712;46;20839;31
2022/08/29 07:32:55;;;;;;;11.98;6.15;;;23.20;99.90;;;;;;2603607;54;20876;31
2022/08/29 07:35:32;;;;;;;16.00;8.60;;;23.60;99.90;;;;;;2773187;31;20617;31
2022/08/29 07:38:09;;;;;;;15.10;8.48;;;23.80;99.90;;;;;;2702004;39;20542;31
2022/08/29 07:40:51;;;;;;;9.50;4.10;;;24.00;99.90;;;;;;2603411;54;20026;31
2022/08/29 07:43:29;;;;;;;11.05;4.30;;;24.20;99.90;;;;;;2603463;54;20026;31
2022/08/29 07:46:08;;;;;;;8.60;3.55;;;24.40;99.90;;;;;;2603620;54;20026;31
2022/08/29 07:48:51;;;;;;;8.50;3.35;;;24.60;99.90;;;;;;2603384;54;20140;31
2022/08/29 07:51:30;;;;;;;8.25;3.42;;;24.70;99.90;;;;;;2603365;54;20074;31
2022/08/29 07:54:06;;;;;;;7.25;3.60;;;24.70;99.90;;;;;;2603444;54;20034;31
2022/08/29 07:56:43;;;;;;;5.95;3.15;;;24.90;99.90;;;;;;2603593;54;20022;31
2022/08/29 07:59:22;;;;;;;8.00;3.25;;;25.00;99.90;;;;;;2602673;54;20913;31
2022/08/29 08:01:58;;;;;;;12.20;4.47;;;25.00;99.90;;;;;;2603223;54;20093;31
2022/08/29 08:04:35;;;;;;;;;;;25.10;99.90;;;;;;2603482;54;20038;31
2022/08/29 08:07:10;;;;;;;9.38;3.42;;;25.30;99.90;;;;;;2602919;54;20017;31
2022/08/29 08:09:48;;;;;;;8.30;3.67;;;25.40;99.90;;;;;;2602986;54;20026;31
2022/08/29 08:12:26;;;;;;;7.97;3.08;;;25.30;99.90;;;;;;2621580;46;20169;31
2022/08/29 08:14:59;;;;;;;9.40;3.80;;;25.30;99.90;;;;;;2603439;54;20023;31
2022/08/29 08:17:38;;;;;;;8.43;3.60;;;25.40;99.90;;;;;;2603159;54;20793;31
2022/08/29 08:20:20;;;;;;;12.90;3.75;;;25.50;99.90;;;;;;2603216;54;20069;31
2022/08/29 08:23:01;;;;;;;9.13;3.55;;;25.30;99.90;;;;;;2603397;54;20121;31
2022/08/29 08:25:37;;;;;;;;;;;25.30;99.90;;;;;;2603300;54;20049;31
2022/08/29 08:28:12;;;;;;;12.02;3.75;;;25.50;99.90;;;;;;2603255;54;19941;31
2022/08/29 08:30:48;;;;;;;6.03;3.13;;;25.50;99.90;;;;;;2603334;54;20034;31
2022/08/29 08:33:28;;;;;;;13.27;3.88;;;25.70;99.90;;;;;;2602992;54;20029;31
2022/08/29 08:36:08;;;;;;;5.93;3.35;;;25.80;99.90;;;;;;2603193;54;20032;31
2022/08/29 08:38:43;;;;;;;10.50;4.20;;;25.80;99.90;;;;;;2603204;54;20569;31
2022/08/29 08:41:35;;;;;;;8.30;4.20;;;25.90;99.90;;;;;;2603051;54;20033;31
2022/08/29 08:44:14;;;;;;;8.15;3.60;;;25.90;99.90;;;;;;2603417;54;20866;31
2022/08/29 08:46:51;;;;;;;12.75;4.20;;;26.00;99.90;;;;;;2603199;54;20584;31
2022/08/29 08:49:36;;;;;;;7.45;3.70;;;26.00;99.90;;;;;;2603349;54;20046;31
2022/08/29 08:52:15;;;;;;;7.38;3.35;;;26.00;99.90;;;;;;2603355;54;20807;31
2022/08/29 08:54:54;;;;;;;8.77;3.67;;;26.10;99.90;;;;;;2603078;54;20573;31
2022/08/29 08:57:41;;;;;;;7.05;3.70;;;26.10;99.90;;;;;;2603225;54;20030;31
2022/08/29 09:00:18;;;;;;;8.13;3.63;;;26.10;99.90;;;;;;2603205;54;20945;31
2022/08/29 09:03:02;;;;;;;11.85;3.80;;;26.10;99.90;;;;;;2602955;54;20922;31
2022/08/29 09:05:49;;;;;;;8.73;3.65;;;26.00;99.90;;;;;;2603313;54;20030;31
2022/08/29 09:08:30;;;;;;;10.98;3.67;;;26.00;99.90;;;;;;2602841;54;20045;31
2022/08/29 09:11:08;;;;;;;6.00;2.95;;;26.10;99.90;;;;;;2603147;54;20112;31
2022/08/29 09:13:46;;;;;;;6.90;3.50;;;26.20;99.90;;;;;;2603228;54;20769;31
2022/08/29 09:16:24;;;;;;;7.25;3.35;;;26.30;99.90;;;;;;2621497;47;20026;31
2022/08/29 09:19:03;;;;;;;6.78;3.08;;;26.50;99.90;;;;;;2603091;54;20031;31
2022/08/29 09:21:45;;;;;;;63.10;31.88;;;26.50;99.90;;;;;;2603282;54;19935;31
2022/08/29 09:26:50;;;;;;;6.78;3.17;;;26.50;99.90;;;;;;2603729;54;20027;31
2022/08/29 09:29:23;;;;;;;10.15;4.72;;;26.60;99.90;;;;;;2603091;54;22449;31
2022/08/29 09:32:11;;;;;;;8.43;4.22;;;26.70;99.90;;;;;;2622253;46;20030;31
2022/08/29 09:34:48;;;;;;;8.98;3.42;;;26.90;99.90;;;;;;2621826;46;20038;31
2022/08/29 09:37:47;;;;;;;7.60;3.03;;;26.80;99.90;;;;;;2603779;54;20026;31
2022/08/29 09:40:25;;;;;;;8.38;2.58;;;27.00;99.90;;;;;;2603906;54;20896;31
2022/08/29 09:42:59;;;;;;;8.65;3.13;;;27.00;99.90;;;;;;2603982;54;20848;31
2022/08/29 09:45:35;;;;;;;8.00;3.17;;;26.90;99.90;;;;;;2603942;54;20026;31
2022/08/29 09:48:14;;;;;;;5.30;2.87;;;26.90;99.90;;;;;;2604089;54;20073;31
2022/08/29 09:50:49;;;;;;;7.22;3.13;;;26.80;99.90;;;;;;2702537;39;21034;31
2022/08/29 09:53:30;;;;;;;6.88;2.15;;;26.80;99.90;;;;;;2604012;54;20030;31
2022/08/29 09:56:06;;;;;;;7.40;3.17;;;26.70;99.90;;;;;;2603793;54;20073;31
2022/08/29 09:58:42;;;;;;;6.93;3.05;;;26.50;99.90;;;;;;2603673;54;20033;31
2022/08/29 10:01:20;;;;;;;7.03;2.78;;;26.10;99.90;;;;;;2603742;54;20089;31
2022/08/29 10:04:03;;;;;;;15.07;3.55;;;25.80;99.90;;;;;;2621833;46;20085;31
2022/08/29 10:06:40;;;;;;;5.57;2.40;;;25.40;99.90;;;;;;2603889;54;20876;31
2022/08/29 10:09:32;;;;;;;6.10;2.55;;;25.10;99.90;;;;;;2603793;54;20026;31
2022/08/29 10:12:11;;;;;;;7.35;2.40;;;24.80;99.90;;;;;;2603383;54;20923;31
2022/08/29 10:14:48;;;;;;;7.00;2.45;;;24.90;99.90;;;;;;2622173;46;20026;31
2022/08/29 10:20:14;;;;;;;6.50;2.87;;;24.60;99.90;;;;;;2603718;54;20026;31
2022/08/29 10:22:54;;;;;;;6.63;2.42;;;24.40;99.90;;;;;;2621745;46;20053;31
2022/08/29 10:25:38;;;;;;;7.13;2.88;;;24.30;99.90;;;;;;2603570;54;20922;31
2022/08/29 10:28:16;;;;;;;9.23;2.50;;;24.30;99.90;;;;;;2602937;54;20826;31
2022/08/29 10:30:55;;;;;;;7.60;2.65;;;24.50;99.90;;;;;;2603309;54;20034;31
2022/08/29 10:34:00;;;;;;;6.00;2.35;;;24.80;99.90;;;;;;2603291;54;20033;31
2022/08/29 10:36:37;;;;;;;6.50;2.55;;;25.10;99.90;;;;;;2603527;54;20052;31
2022/08/29 10:39:14;;;;;;;5.07;2.20;;;25.20;99.90;;;;;;2602971;54;20052;31
2022/08/29 10:41:55;;;;;;;6.40;2.25;;;25.40;99.90;;;;;;2603522;54;20033;31
2022/08/29 10:44:34;;;;;;;9.07;2.63;;;25.60;99.90;;;;;;2603785;54;20030;31
2022/08/29 10:47:18;;;;;;;7.38;2.50;;;25.70;99.90;;;;;;2603556;54;20038;31
2022/08/29 10:50:05;;;;;;;8.70;3.00;;;25.90;99.90;;;;;;2622142;46;20034;31
2022/08/29 10:52:54;;;;;;;7.70;2.75;;;25.90;99.90;;;;;;2603700;54;20030;31
2022/08/29 10:55:28;;;;;;;5.30;2.10;;;25.90;99.90;;;;;;2603509;54;20089;31
2022/08/29 10:58:08;;;;;;;7.93;1.85;;;25.90;99.90;;;;;;2603441;54;20926;31
2022/08/29 11:00:47;;;;;;;5.93;2.33;;;26.00;99.90;;;;;;2621940;46;20903;31
2022/08/29 11:03:24;;;;;;;9.20;2.88;;;26.00;99.90;;;;;;2622139;46;20026;31
2022/08/29 11:06:02;;;;;;;8.85;2.70;;;26.00;99.90;;;;;;2603588;54;20096;31
2022/08/29 11:08:43;;;;;;;9.10;3.10;;;26.00;99.90;;;;;;2602847;54;20052;31
2022/08/29 11:11:19;;;;;;;7.40;2.65;;;26.00;99.90;;;;;;2603364;54;20023;31
2022/08/29 11:14:01;;;;;;;6.97;2.25;;;26.20;99.90;;;;;;2603580;54;20916;31
2022/08/29 11:16:43;;;;;;;7.82;2.72;;;26.20;99.90;;;;;;2603563;54;20026;31
2022/08/29 11:19:21;;;;;;;7.63;2.53;;;26.00;99.90;;;;;;2603825;54;20137;31
2022/08/29 11:21:57;;;;;;;8.20;2.22;;;26.00;99.90;;;;;;2603535;54;20022;31
2022/08/29 11:24:33;;;;;;;7.50;2.42;;;25.90;99.90;;;;;;2603660;54;20030;31
2022/08/29 11:27:13;;;;;;;8.35;2.78;;;25.90;99.90;;;;;;2621772;46;20077;31
2022/08/29 11:29:58;;;;;;;5.72;2.25;;;25.80;99.90;;;;;;2603436;54;20031;31
2022/08/29 11:32:37;;;;;;;5.93;2.13;;;25.80;99.90;;;;;;2603492;54;20943;31
2022/08/29 11:35:19;;;;;;;5.72;2.13;;;25.80;99.90;;;;;;2603301;54;21237;31
2022/08/29 11:38:24;;;;;;;6.30;2.28;;;25.70;99.90;;;;;;2603538;54;20078;31
2022/08/29 11:41:24;;;;;;;5.90;2.20;;;25.70;99.90;;;;;;2603456;54;20882;31
2022/08/29 11:44:16;;;;;;;8.85;2.25;;;25.60;99.90;;;;;;2603433;54;20026;31
2022/08/29 11:47:00;;;;;;;9.05;2.85;;;25.60;99.90;;;;;;2603121;54;25035;31
2022/08/29 11:49:39;;;;;;;7.97;2.65;;;25.50;99.90;;;;;;2603179;54;22325;31
2022/08/29 11:52:27;;;;;;;8.43;2.50;;;25.40;99.90;;;;;;2702194;39;21055;31
2022/08/29 11:55:30;;;;;;;5.93;2.33;;;25.40;99.90;;;;;;2603218;54;20921;31
2022/08/29 11:58:24;;;;;;;9.05;2.20;;;25.40;99.90;;;;;;2621788;46;20581;31
2022/08/29 12:00:59;;;;;;;4.93;1.90;;;25.30;99.90;;;;;;2603368;54;20027;31
2022/08/29 12:03:48;;;;;;;7.35;2.50;;;25.30;99.90;;;;;;2603298;54;20081;31
2022/08/29 12:06:54;;;;;;;5.60;2.30;;;25.30;99.90;;;;;;2603276;54;20846;31
2022/08/29 12:09:44;;;;;;;5.88;2.25;;;25.20;99.90;;;;;;2621735;46;20108;31
2022/08/29 12:12:47;;;;;;;5.82;1.67;;;25.20;99.90;;;;;;2621849;46;20085;31
2022/08/29 12:15:53;;;;;;;7.55;2.85;;;25.20;99.90;;;;;;2603642;54;20122;31
2022/08/29 12:18:42;;;;;;;4.85;2.00;;;25.10;99.90;;;;;;2603363;54;20038;31
2022/08/29 12:21:43;;;;;;;4.03;2.25;;;25.10;99.90;;;;;;2603521;54;20878;31
2022/08/29 12:24:41;;;;;;;5.45;1.90;;;25.00;99.90;;;;;;2602875;54;19933;31
2022/08/29 12:27:27;;;;;;;7.03;2.25;;;25.00;99.90;;;;;;2602885;54;20860;31
2022/08/29 12:30:01;;;;;;;7.10;2.00;;;24.90;99.90;;;;;;2603256;54;20037;31
2022/08/29 12:32:51;;;;;;;6.00;2.20;;;24.90;99.90;;;;;;2764623;31;20255;31
2022/08/29 12:35:46;;;;;;;6.15;1.83;;;24.90;99.90;;;;;;2603150;54;20880;31
2022/08/29 12:38:29;;;;;;;6.23;2.20;;;24.90;99.90;;;;;;2602982;54;20033;31
2022/08/29 12:41:11;;;;;;;5.57;2.57;;;24.80;99.90;;;;;;2603243;54;20023;31
2022/08/29 12:43:46;;;;;;;5.57;2.10;;;24.80;99.90;;;;;;2603372;54;20026;31
2022/08/29 12:46:24;;;;;;;8.45;2.60;;;24.80;99.90;;;;;;2603260;54;20897;31
2022/08/29 12:49:07;;;;;;;5.20;2.10;;;24.70;99.90;;;;;;2603258;54;20906;31
2022/08/29 12:51:42;;;;;;;8.20;2.15;;;24.60;99.90;;;;;;2603138;54;20030;31
2022/08/29 12:54:31;;;;;;;6.32;2.22;;;24.50;99.90;;;;;;2602964;54;20782;31
2022/08/29 12:57:07;;;;;;;6.95;2.22;;;24.50;99.90;;;;;;2602937;54;20841;31
2022/08/29 12:59:46;;;;;;;4.30;1.80;;;24.50;99.90;;;;;;2603089;54;20026;31
2022/08/29 13:02:26;;;;;;;6.45;2.40;;;24.50;99.90;;;;;;2603144;54;20847;31
2022/08/29 13:05:01;;;;;;;4.18;2.10;;;24.50;99.90;;;;;;2602962;54;20759;31
2022/08/29 13:07:36;;;;;;;7.10;1.97;;;24.40;99.90;;;;;;2621154;46;20832;31
2022/08/29 13:10:19;;;;;;;5.75;2.15;;;24.40;99.90;;;;;;2621288;46;20833;31
2022/08/29 13:12:56;;;;;;;5.22;2.08;;;24.40;99.90;;;;;;2603281;54;20078;31
2022/08/29 13:15:34;;;;;;;6.72;2.40;;;24.40;99.90;;;;;;2602921;54;20919;31
2022/08/29 13:18:09;;;;;;;9.05;2.25;;;24.30;99.90;;;;;;2603067;54;20161;31
2022/08/29 13:20:44;;;;;;;5.80;2.20;;;24.40;99.90;;;;;;2603178;54;20842;31
2022/08/29 13:23:24;;;;;;;5.50;2.20;;;24.40;99.90;;;;;;2602976;54;21174;31
2022/08/29 13:26:07;;;;;;;4.33;2.30;;;24.40;99.90;;;;;;2603053;54;20247;31
2022/08/29 13:28:41;;;;;;;6.15;2.10;;;24.40;99.90;;;;;;2603246;54;20023;31
2022/08/29 13:31:28;;;;;;;10.65;2.40;;;24.40;99.90;;;;;;2602144;54;20801;31
2022/08/29 13:34:22;;;;;;;6.40;2.37;;;24.40;99.90;;;;;;2603198;54;20037;31
2022/08/29 13:37:00;;;;;;;7.05;2.83;;;24.30;99.90;;;;;;2603163;54;20742;31
2022/08/29 13:39:37;;;;;;;7.28;2.38;;;24.30;99.90;;;;;;2603051;54;20811;31
2022/08/29 13:42:35;;;;;;;6.72;2.22;;;24.30;99.90;;;;;;2602912;54;20038;31
2022/08/29 13:45:15;;;;;;;8.57;2.40;;;24.30;99.90;;;;;;2603313;54;20865;31
2022/08/29 13:47:54;;;;;;;5.13;2.30;;;24.30;99.90;;;;;;2602238;54;20857;31
2022/08/29 13:50:29;;;;;;;4.43;2.25;;;24.30;99.90;;;;;;2621658;47;20950;31
2022/08/29 13:53:07;;;;;;;8.02;2.33;;;24.30;99.90;;;;;;2602794;54;20049;31
2022/08/29 13:55:44;;;;;;;6.55;2.20;;;24.20;99.90;;;;;;2602792;54;20890;31
2022/08/29 13:58:21;;;;;;;6.93;2.70;;;24.20;99.90;;;;;;2621733;47;21071;31
2022/08/29 14:00:56;;;;;;;5.85;2.47;;;24.10;99.90;;;;;;2602770;54;20065;31